sensor_id;sensor_type;location;lat;lon;timestamp;P1;durP1;ratioP1;P2;durP2;ratioP2
69087;SDS011;56190;43.562;5.036;2023-04-16T00:01:38;0.73;;;0.40;;
69087;SDS011;56190;43.562;5.036;2023-04-16T00:04:03;1.30;;;0.55;;
69087;SDS011;56190;43.562;5.036;2023-04-16T00:06:28;0.57;;;0.45;;
69087;SDS011;56190;43.562;5.036;2023-04-16T00:08:53;0.40;;;0.40;;
69087;SDS011;56190;43.562;5.036;2023-04-16T00:11:19;0.40;;;0.40;;
69087;SDS011;56190;43.562;5.036;2023-04-16T00:13:44;0.73;;;0.40;;
69087;SDS011;56190;43.562;5.036;2023-04-16T00:16:09;0.80;;;0.40;;
69087;SDS011;56190;43.562;5.036;2023-04-16T00:18:34;0.50;;;0.50;;
69087;SDS011;56190;43.562;5.036;2023-04-16T00:21:00;0.95;;;0.50;;
69087;SDS011;56190;43.562;5.036;2023-04-16T00:23:25;1.05;;;0.40;;
69087;SDS011;56190;43.562;5.036;2023-04-16T00:25:50;0.80;;;0.52;;
69087;SDS011;56190;43.562;5.036;2023-04-16T00:28:17;2.08;;;0.60;;
69087;SDS011;56190;43.562;5.036;2023-04-16T00:30:42;1.58;;;0.50;;
69087;SDS011;56190;43.562;5.036;2023-04-16T00:33:08;0.45;;;0.40;;
69087;SDS011;56190;43.562;5.036;2023-04-16T00:35:33;0.50;;;0.50;;
69087;SDS011;56190;43.562;5.036;2023-04-16T00:37:58;0.75;;;0.60;;
69087;SDS011;56190;43.562;5.036;2023-04-16T00:40:27;1.48;;;0.60;;
69087;SDS011;56190;43.562;5.036;2023-04-16T00:42:53;0.82;;;0.57;;
69087;SDS011;56190;43.562;5.036;2023-04-16T00:45:18;0.80;;;0.50;;
69087;SDS011;56190;43.562;5.036;2023-04-16T00:47:44;0.95;;;0.57;;
69087;SDS011;56190;43.562;5.036;2023-04-16T00:50:10;1.58;;;0.50;;
69087;SDS011;56190;43.562;5.036;2023-04-16T00:52:35;0.93;;;0.60;;
69087;SDS011;56190;43.562;5.036;2023-04-16T00:55:00;1.58;;;0.80;;
69087;SDS011;56190;43.562;5.036;2023-04-16T00:57:26;0.85;;;0.60;;
69087;SDS011;56190;43.562;5.036;2023-04-16T00:59:52;1.23;;;0.90;;
69087;SDS011;56190;43.562;5.036;2023-04-16T01:02:18;1.02;;;0.90;;
69087;SDS011;56190;43.562;5.036;2023-04-16T01:04:43;1.20;;;0.80;;
69087;SDS011;56190;43.562;5.036;2023-04-16T01:07:08;1.95;;;1.00;;
69087;SDS011;56190;43.562;5.036;2023-04-16T01:09:34;2.13;;;0.85;;
69087;SDS011;56190;43.562;5.036;2023-04-16T01:11:59;2.25;;;0.80;;
69087;SDS011;56190;43.562;5.036;2023-04-16T01:14:26;2.17;;;0.80;;
69087;SDS011;56190;43.562;5.036;2023-04-16T01:16:51;1.98;;;0.82;;
69087;SDS011;56190;43.562;5.036;2023-04-16T01:19:16;1.20;;;0.80;;
69087;SDS011;56190;43.562;5.036;2023-04-16T01:21:41;0.82;;;0.70;;
69087;SDS011;56190;43.562;5.036;2023-04-16T01:24:07;0.70;;;0.70;;
69087;SDS011;56190;43.562;5.036;2023-04-16T01:26:32;1.67;;;0.80;;
69087;SDS011;56190;43.562;5.036;2023-04-16T01:28:58;3.08;;;1.15;;
69087;SDS011;56190;43.562;5.036;2023-04-16T01:31:23;1.50;;;0.93;;
69087;SDS011;56190;43.562;5.036;2023-04-16T01:33:48;2.28;;;0.98;;
69087;SDS011;56190;43.562;5.036;2023-04-16T01:36:14;1.88;;;0.80;;
69087;SDS011;56190;43.562;5.036;2023-04-16T01:38:39;1.55;;;0.80;;
69087;SDS011;56190;43.562;5.036;2023-04-16T01:41:04;1.40;;;0.80;;
69087;SDS011;56190;43.562;5.036;2023-04-16T01:43:30;1.17;;;0.80;;
69087;SDS011;56190;43.562;5.036;2023-04-16T01:45:58;0.95;;;0.90;;
69087;SDS011;56190;43.562;5.036;2023-04-16T01:48:32;1.23;;;0.80;;
69087;SDS011;56190;43.562;5.036;2023-04-16T01:50:57;3.00;;;1.17;;
69087;SDS011;56190;43.562;5.036;2023-04-16T01:53:24;2.45;;;1.08;;
69087;SDS011;56190;43.562;5.036;2023-04-16T01:55:49;2.78;;;1.25;;
69087;SDS011;56190;43.562;5.036;2023-04-16T01:58:15;2.30;;;1.00;;
69087;SDS011;56190;43.562;5.036;2023-04-16T02:00:40;2.35;;;0.80;;
69087;SDS011;56190;43.562;5.036;2023-04-16T02:03:05;2.05;;;1.13;;
69087;SDS011;56190;43.562;5.036;2023-04-16T02:05:30;2.30;;;0.95;;
69087;SDS011;56190;43.562;5.036;2023-04-16T02:07:56;4.07;;;0.90;;
69087;SDS011;56190;43.562;5.036;2023-04-16T02:10:21;2.97;;;0.85;;
69087;SDS011;56190;43.562;5.036;2023-04-16T02:12:47;1.60;;;0.70;;
69087;SDS011;56190;43.562;5.036;2023-04-16T02:15:12;1.48;;;0.68;;
69087;SDS011;56190;43.562;5.036;2023-04-16T02:17:37;2.30;;;0.82;;
69087;SDS011;56190;43.562;5.036;2023-04-16T02:20:03;1.52;;;0.60;;
69087;SDS011;56190;43.562;5.036;2023-04-16T02:22:31;1.88;;;0.77;;
69087;SDS011;56190;43.562;5.036;2023-04-16T02:24:57;1.30;;;0.77;;
69087;SDS011;56190;43.562;5.036;2023-04-16T02:27:22;1.75;;;0.80;;
69087;SDS011;56190;43.562;5.036;2023-04-16T02:29:47;1.92;;;0.90;;
69087;SDS011;56190;43.562;5.036;2023-04-16T02:32:12;2.53;;;0.85;;
69087;SDS011;56190;43.562;5.036;2023-04-16T02:34:38;1.65;;;0.80;;
69087;SDS011;56190;43.562;5.036;2023-04-16T02:37:04;2.08;;;1.00;;
69087;SDS011;56190;43.562;5.036;2023-04-16T02:39:29;2.15;;;1.00;;
69087;SDS011;56190;43.562;5.036;2023-04-16T02:41:54;2.20;;;1.35;;
69087;SDS011;56190;43.562;5.036;2023-04-16T02:44:20;2.38;;;1.10;;
69087;SDS011;56190;43.562;5.036;2023-04-16T02:46:45;1.67;;;1.00;;
69087;SDS011;56190;43.562;5.036;2023-04-16T02:49:10;1.80;;;1.25;;
69087;SDS011;56190;43.562;5.036;2023-04-16T02:51:36;1.48;;;1.08;;
69087;SDS011;56190;43.562;5.036;2023-04-16T02:54:01;2.75;;;1.20;;
69087;SDS011;56190;43.562;5.036;2023-04-16T02:56:27;1.40;;;1.08;;
69087;SDS011;56190;43.562;5.036;2023-04-16T02:58:52;2.28;;;1.25;;
69087;SDS011;56190;43.562;5.036;2023-04-16T03:01:17;2.38;;;1.55;;
69087;SDS011;56190;43.562;5.036;2023-04-16T03:03:43;2.60;;;1.20;;
69087;SDS011;56190;43.562;5.036;2023-04-16T03:06:08;4.45;;;1.30;;
69087;SDS011;56190;43.562;5.036;2023-04-16T03:08:33;3.95;;;1.67;;
69087;SDS011;56190;43.562;5.036;2023-04-16T03:10:58;3.28;;;1.60;;
69087;SDS011;56190;43.562;5.036;2023-04-16T03:13:24;8.32;;;1.95;;
69087;SDS011;56190;43.562;5.036;2023-04-16T03:15:49;2.25;;;1.67;;
69087;SDS011;56190;43.562;5.036;2023-04-16T03:18:15;2.58;;;1.58;;
69087;SDS011;56190;43.562;5.036;2023-04-16T03:20:40;4.47;;;1.95;;
69087;SDS011;56190;43.562;5.036;2023-04-16T03:23:05;2.40;;;1.67;;
69087;SDS011;56190;43.562;5.036;2023-04-16T03:25:30;2.70;;;2.00;;
69087;SDS011;56190;43.562;5.036;2023-04-16T03:27:56;2.83;;;1.98;;
69087;SDS011;56190;43.562;5.036;2023-04-16T03:30:21;2.00;;;1.80;;
69087;SDS011;56190;43.562;5.036;2023-04-16T03:32:46;3.45;;;1.80;;
69087;SDS011;56190;43.562;5.036;2023-04-16T03:35:11;2.55;;;1.70;;
69087;SDS011;56190;43.562;5.036;2023-04-16T03:37:37;3.47;;;1.67;;
69087;SDS011;56190;43.562;5.036;2023-04-16T03:40:02;3.08;;;1.80;;
69087;SDS011;56190;43.562;5.036;2023-04-16T03:42:29;3.67;;;1.92;;
69087;SDS011;56190;43.562;5.036;2023-04-16T03:44:55;2.80;;;2.00;;
69087;SDS011;56190;43.562;5.036;2023-04-16T03:47:20;4.22;;;2.08;;
69087;SDS011;56190;43.562;5.036;2023-04-16T03:49:45;3.67;;;2.35;;
69087;SDS011;56190;43.562;5.036;2023-04-16T03:52:10;3.05;;;2.10;;
69087;SDS011;56190;43.562;5.036;2023-04-16T03:54:36;2.53;;;2.20;;
69087;SDS011;56190;43.562;5.036;2023-04-16T03:57:01;3.47;;;2.20;;
69087;SDS011;56190;43.562;5.036;2023-04-16T03:59:26;3.10;;;1.92;;
69087;SDS011;56190;43.562;5.036;2023-04-16T04:01:52;3.38;;;2.05;;
69087;SDS011;56190;43.562;5.036;2023-04-16T04:04:17;4.07;;;2.17;;
69087;SDS011;56190;43.562;5.036;2023-04-16T04:06:43;3.53;;;2.20;;
69087;SDS011;56190;43.562;5.036;2023-04-16T04:09:09;2.97;;;2.10;;
69087;SDS011;56190;43.562;5.036;2023-04-16T04:11:34;2.65;;;1.83;;
69087;SDS011;56190;43.562;5.036;2023-04-16T04:13:59;4.65;;;1.95;;
69087;SDS011;56190;43.562;5.036;2023-04-16T04:16:24;2.55;;;1.85;;
69087;SDS011;56190;43.562;5.036;2023-04-16T04:18:50;2.47;;;1.80;;
69087;SDS011;56190;43.562;5.036;2023-04-16T04:21:15;3.85;;;2.30;;
69087;SDS011;56190;43.562;5.036;2023-04-16T04:23:40;4.10;;;2.30;;
69087;SDS011;56190;43.562;5.036;2023-04-16T04:26:06;3.92;;;2.15;;
69087;SDS011;56190;43.562;5.036;2023-04-16T04:28:32;3.63;;;2.05;;
69087;SDS011;56190;43.562;5.036;2023-04-16T04:30:57;4.03;;;2.30;;
69087;SDS011;56190;43.562;5.036;2023-04-16T04:33:23;3.13;;;2.05;;
69087;SDS011;56190;43.562;5.036;2023-04-16T04:35:48;3.25;;;2.35;;
69087;SDS011;56190;43.562;5.036;2023-04-16T04:38:13;3.38;;;2.22;;
69087;SDS011;56190;43.562;5.036;2023-04-16T04:40:43;4.10;;;2.67;;
69087;SDS011;56190;43.562;5.036;2023-04-16T04:43:08;4.90;;;2.78;;
69087;SDS011;56190;43.562;5.036;2023-04-16T04:45:34;3.67;;;2.78;;
69087;SDS011;56190;43.562;5.036;2023-04-16T04:47:59;5.43;;;2.53;;
69087;SDS011;56190;43.562;5.036;2023-04-16T04:50:25;4.57;;;2.38;;
69087;SDS011;56190;43.562;5.036;2023-04-16T04:52:50;4.55;;;2.60;;
69087;SDS011;56190;43.562;5.036;2023-04-16T04:55:15;4.28;;;2.65;;
69087;SDS011;56190;43.562;5.036;2023-04-16T04:57:40;4.60;;;2.58;;
69087;SDS011;56190;43.562;5.036;2023-04-16T05:00:06;5.95;;;3.15;;
69087;SDS011;56190;43.562;5.036;2023-04-16T05:02:32;4.85;;;2.92;;
69087;SDS011;56190;43.562;5.036;2023-04-16T05:04:57;4.05;;;2.92;;
69087;SDS011;56190;43.562;5.036;2023-04-16T05:07:22;6.75;;;3.40;;
69087;SDS011;56190;43.562;5.036;2023-04-16T05:09:47;3.20;;;2.90;;
69087;SDS011;56190;43.562;5.036;2023-04-16T05:12:13;6.22;;;3.05;;
69087;SDS011;56190;43.562;5.036;2023-04-16T05:14:38;3.53;;;2.85;;
69087;SDS011;56190;43.562;5.036;2023-04-16T05:17:03;3.65;;;2.80;;
69087;SDS011;56190;43.562;5.036;2023-04-16T05:19:28;5.60;;;3.13;;
69087;SDS011;56190;43.562;5.036;2023-04-16T05:21:53;3.85;;;2.83;;
69087;SDS011;56190;43.562;5.036;2023-04-16T05:24:19;4.05;;;3.13;;
69087;SDS011;56190;43.562;5.036;2023-04-16T05:26:44;4.07;;;3.00;;
69087;SDS011;56190;43.562;5.036;2023-04-16T05:29:09;4.47;;;3.40;;
69087;SDS011;56190;43.562;5.036;2023-04-16T05:31:35;6.18;;;3.72;;
69087;SDS011;56190;43.562;5.036;2023-04-16T05:34:00;4.22;;;3.15;;
69087;SDS011;56190;43.562;5.036;2023-04-16T05:36:25;4.72;;;3.10;;
69087;SDS011;56190;43.562;5.036;2023-04-16T05:38:51;5.15;;;3.72;;
69087;SDS011;56190;43.562;5.036;2023-04-16T05:41:16;4.22;;;3.17;;
69087;SDS011;56190;43.562;5.036;2023-04-16T05:43:41;10.85;;;3.85;;
69087;SDS011;56190;43.562;5.036;2023-04-16T05:46:06;3.60;;;3.30;;
69087;SDS011;56190;43.562;5.036;2023-04-16T05:48:32;5.07;;;3.65;;
69087;SDS011;56190;43.562;5.036;2023-04-16T05:50:57;4.95;;;3.30;;
69087;SDS011;56190;43.562;5.036;2023-04-16T05:53:22;6.03;;;3.85;;
69087;SDS011;56190;43.562;5.036;2023-04-16T05:55:47;4.35;;;3.45;;
69087;SDS011;56190;43.562;5.036;2023-04-16T05:58:13;4.57;;;3.40;;
69087;SDS011;56190;43.562;5.036;2023-04-16T06:00:38;4.00;;;3.20;;
69087;SDS011;56190;43.562;5.036;2023-04-16T06:03:03;4.13;;;3.10;;
69087;SDS011;56190;43.562;5.036;2023-04-16T06:05:29;5.30;;;3.50;;
69087;SDS011;56190;43.562;5.036;2023-04-16T06:07:54;7.10;;;3.30;;
69087;SDS011;56190;43.562;5.036;2023-04-16T06:10:20;3.90;;;3.10;;
69087;SDS011;56190;43.562;5.036;2023-04-16T06:12:45;4.68;;;3.30;;
69087;SDS011;56190;43.562;5.036;2023-04-16T06:15:10;3.72;;;3.05;;
69087;SDS011;56190;43.562;5.036;2023-04-16T06:17:36;4.20;;;2.80;;
69087;SDS011;56190;43.562;5.036;2023-04-16T06:20:01;3.75;;;3.15;;
69087;SDS011;56190;43.562;5.036;2023-04-16T06:22:26;3.55;;;2.90;;
69087;SDS011;56190;43.562;5.036;2023-04-16T06:24:52;4.65;;;2.97;;
69087;SDS011;56190;43.562;5.036;2023-04-16T06:27:17;4.60;;;2.90;;
69087;SDS011;56190;43.562;5.036;2023-04-16T06:29:42;5.72;;;3.05;;
69087;SDS011;56190;43.562;5.036;2023-04-16T06:32:08;6.50;;;3.75;;
69087;SDS011;56190;43.562;5.036;2023-04-16T06:34:33;5.88;;;3.25;;
69087;SDS011;56190;43.562;5.036;2023-04-16T06:36:58;4.30;;;3.05;;
69087;SDS011;56190;43.562;5.036;2023-04-16T06:39:24;4.95;;;3.08;;
69087;SDS011;56190;43.562;5.036;2023-04-16T06:41:49;3.20;;;2.90;;
69087;SDS011;56190;43.562;5.036;2023-04-16T06:44:14;3.58;;;3.20;;
69087;SDS011;56190;43.562;5.036;2023-04-16T06:46:40;4.28;;;2.90;;
69087;SDS011;56190;43.562;5.036;2023-04-16T06:49:05;3.97;;;3.05;;
69087;SDS011;56190;43.562;5.036;2023-04-16T06:51:31;4.30;;;3.13;;
69087;SDS011;56190;43.562;5.036;2023-04-16T06:53:56;5.20;;;3.70;;
69087;SDS011;56190;43.562;5.036;2023-04-16T06:56:22;5.07;;;2.90;;
69087;SDS011;56190;43.562;5.036;2023-04-16T06:58:47;4.82;;;3.00;;
69087;SDS011;56190;43.562;5.036;2023-04-16T07:01:12;3.88;;;2.92;;
69087;SDS011;56190;43.562;5.036;2023-04-16T07:03:37;4.53;;;2.72;;
69087;SDS011;56190;43.562;5.036;2023-04-16T07:06:03;3.55;;;2.83;;
69087;SDS011;56190;43.562;5.036;2023-04-16T07:08:28;5.35;;;3.30;;
69087;SDS011;56190;43.562;5.036;2023-04-16T07:10:53;3.38;;;3.03;;
69087;SDS011;56190;43.562;5.036;2023-04-16T07:13:19;4.95;;;2.80;;
69087;SDS011;56190;43.562;5.036;2023-04-16T07:15:44;3.97;;;2.70;;
69087;SDS011;56190;43.562;5.036;2023-04-16T07:18:10;4.53;;;2.90;;
69087;SDS011;56190;43.562;5.036;2023-04-16T07:20:35;2.90;;;2.28;;
69087;SDS011;56190;43.562;5.036;2023-04-16T07:23:00;4.13;;;2.40;;
69087;SDS011;56190;43.562;5.036;2023-04-16T07:25:25;3.13;;;2.40;;
69087;SDS011;56190;43.562;5.036;2023-04-16T07:27:51;3.08;;;2.60;;
69087;SDS011;56190;43.562;5.036;2023-04-16T07:30:16;1.98;;;1.85;;
69087;SDS011;56190;43.562;5.036;2023-04-16T07:32:41;4.05;;;2.20;;
69087;SDS011;56190;43.562;5.036;2023-04-16T07:35:07;4.28;;;2.60;;
69087;SDS011;56190;43.562;5.036;2023-04-16T07:37:32;2.55;;;2.10;;
69087;SDS011;56190;43.562;5.036;2023-04-16T07:39:57;2.90;;;2.20;;
69087;SDS011;56190;43.562;5.036;2023-04-16T07:42:24;2.50;;;2.25;;
69087;SDS011;56190;43.562;5.036;2023-04-16T07:44:49;4.80;;;2.22;;
69087;SDS011;56190;43.562;5.036;2023-04-16T07:47:15;2.72;;;1.90;;
69087;SDS011;56190;43.562;5.036;2023-04-16T07:49:40;1.98;;;1.77;;
69087;SDS011;56190;43.562;5.036;2023-04-16T07:52:05;2.30;;;1.63;;
69087;SDS011;56190;43.562;5.036;2023-04-16T07:54:30;3.70;;;1.77;;
69087;SDS011;56190;43.562;5.036;2023-04-16T07:56:56;5.97;;;2.20;;
69087;SDS011;56190;43.562;5.036;2023-04-16T07:59:21;2.88;;;2.17;;
69087;SDS011;56190;43.562;5.036;2023-04-16T08:01:46;2.63;;;2.17;;
69087;SDS011;56190;43.562;5.036;2023-04-16T08:04:11;4.03;;;2.30;;
69087;SDS011;56190;43.562;5.036;2023-04-16T08:06:38;2.95;;;1.80;;
69087;SDS011;56190;43.562;5.036;2023-04-16T08:09:03;3.42;;;1.90;;
69087;SDS011;56190;43.562;5.036;2023-04-16T08:11:28;4.93;;;2.05;;
69087;SDS011;56190;43.562;5.036;2023-04-16T08:13:53;2.40;;;2.20;;
69087;SDS011;56190;43.562;5.036;2023-04-16T08:16:19;3.63;;;1.80;;
69087;SDS011;56190;43.562;5.036;2023-04-16T08:18:44;6.43;;;2.20;;
69087;SDS011;56190;43.562;5.036;2023-04-16T08:21:09;4.35;;;2.20;;
69087;SDS011;56190;43.562;5.036;2023-04-16T08:23:34;2.38;;;1.90;;
69087;SDS011;56190;43.562;5.036;2023-04-16T08:26:00;4.40;;;2.10;;
69087;SDS011;56190;43.562;5.036;2023-04-16T08:28:26;4.22;;;2.20;;
69087;SDS011;56190;43.562;5.036;2023-04-16T08:30:51;4.18;;;2.10;;
69087;SDS011;56190;43.562;5.036;2023-04-16T08:33:16;2.90;;;2.17;;
69087;SDS011;56190;43.562;5.036;2023-04-16T08:35:42;3.80;;;1.80;;
69087;SDS011;56190;43.562;5.036;2023-04-16T08:38:07;2.20;;;1.73;;
69087;SDS011;56190;43.562;5.036;2023-04-16T08:40:34;4.65;;;2.35;;
69087;SDS011;56190;43.562;5.036;2023-04-16T08:43:00;3.83;;;1.90;;
69087;SDS011;56190;43.562;5.036;2023-04-16T08:45:26;2.90;;;1.90;;
69087;SDS011;56190;43.562;5.036;2023-04-16T08:47:52;3.30;;;1.95;;
69087;SDS011;56190;43.562;5.036;2023-04-16T08:50:24;3.92;;;2.00;;
69087;SDS011;56190;43.562;5.036;2023-04-16T08:53:09;2.80;;;2.22;;
69087;SDS011;56190;43.562;5.036;2023-04-16T08:55:36;3.67;;;2.10;;
69087;SDS011;56190;43.562;5.036;2023-04-16T08:58:03;3.33;;;1.80;;
69087;SDS011;56190;43.562;5.036;2023-04-16T09:00:32;4.38;;;2.10;;
69087;SDS011;56190;43.562;5.036;2023-04-16T09:02:57;2.08;;;1.88;;
69087;SDS011;56190;43.562;5.036;2023-04-16T09:05:23;3.90;;;1.80;;
69087;SDS011;56190;43.562;5.036;2023-04-16T09:07:50;4.00;;;2.10;;
69087;SDS011;56190;43.562;5.036;2023-04-16T09:10:16;6.13;;;1.90;;
69087;SDS011;56190;43.562;5.036;2023-04-16T09:12:41;2.05;;;1.60;;
69087;SDS011;56190;43.562;5.036;2023-04-16T09:15:08;2.33;;;1.55;;
69087;SDS011;56190;43.562;5.036;2023-04-16T09:17:34;3.30;;;1.60;;
69087;SDS011;56190;43.562;5.036;2023-04-16T09:19:59;2.42;;;1.90;;
69087;SDS011;56190;43.562;5.036;2023-04-16T09:22:25;3.25;;;1.60;;
69087;SDS011;56190;43.562;5.036;2023-04-16T09:24:50;2.55;;;2.03;;
69087;SDS011;56190;43.562;5.036;2023-04-16T09:27:15;3.80;;;2.08;;
69087;SDS011;56190;43.562;5.036;2023-04-16T09:29:41;4.95;;;1.77;;
69087;SDS011;56190;43.562;5.036;2023-04-16T09:32:07;2.78;;;1.90;;
69087;SDS011;56190;43.562;5.036;2023-04-16T09:34:33;2.20;;;1.35;;
69087;SDS011;56190;43.562;5.036;2023-04-16T09:37:14;2.95;;;1.77;;
69087;SDS011;56190;43.562;5.036;2023-04-16T09:39:41;3.92;;;1.50;;
69087;SDS011;56190;43.562;5.036;2023-04-16T09:42:06;2.25;;;1.30;;
69087;SDS011;56190;43.562;5.036;2023-04-16T09:44:35;1.65;;;1.42;;
69087;SDS011;56190;43.562;5.036;2023-04-16T09:47:07;4.10;;;1.67;;
69087;SDS011;56190;43.562;5.036;2023-04-16T09:49:39;4.18;;;1.50;;
69087;SDS011;56190;43.562;5.036;2023-04-16T09:52:08;2.13;;;1.33;;
69087;SDS011;56190;43.562;5.036;2023-04-16T09:54:36;4.63;;;1.70;;
69087;SDS011;56190;43.562;5.036;2023-04-16T09:57:01;9.82;;;2.05;;
69087;SDS011;56190;43.562;5.036;2023-04-16T09:59:27;3.40;;;1.73;;
69087;SDS011;56190;43.562;5.036;2023-04-16T10:01:57;1.95;;;1.30;;
69087;SDS011;56190;43.562;5.036;2023-04-16T10:04:24;1.88;;;1.10;;
69087;SDS011;56190;43.562;5.036;2023-04-16T10:07:01;2.72;;;1.38;;
69087;SDS011;56190;43.562;5.036;2023-04-16T10:09:30;3.22;;;1.10;;
69087;SDS011;56190;43.562;5.036;2023-04-16T10:11:56;2.45;;;1.50;;
69087;SDS011;56190;43.562;5.036;2023-04-16T10:14:21;4.28;;;1.60;;
69087;SDS011;56190;43.562;5.036;2023-04-16T10:16:46;5.88;;;1.50;;
69087;SDS011;56190;43.562;5.036;2023-04-16T10:19:11;5.13;;;1.55;;
69087;SDS011;56190;43.562;5.036;2023-04-16T10:21:37;2.78;;;1.20;;
69087;SDS011;56190;43.562;5.036;2023-04-16T10:24:02;3.05;;;1.23;;
69087;SDS011;56190;43.562;5.036;2023-04-16T10:26:28;2.92;;;1.40;;
69087;SDS011;56190;43.562;5.036;2023-04-16T10:28:54;2.80;;;1.40;;
69087;SDS011;56190;43.562;5.036;2023-04-16T10:31:19;4.07;;;1.52;;
69087;SDS011;56190;43.562;5.036;2023-04-16T10:33:44;2.75;;;1.20;;
69087;SDS011;56190;43.562;5.036;2023-04-16T10:36:11;3.78;;;1.55;;
69087;SDS011;56190;43.562;5.036;2023-04-16T10:38:37;2.50;;;1.13;;
69087;SDS011;56190;43.562;5.036;2023-04-16T10:41:03;3.05;;;1.27;;
69087;SDS011;56190;43.562;5.036;2023-04-16T10:43:29;4.10;;;1.42;;
69087;SDS011;56190;43.562;5.036;2023-04-16T10:45:54;2.05;;;1.25;;
69087;SDS011;56190;43.562;5.036;2023-04-16T10:48:20;6.60;;;1.20;;
69087;SDS011;56190;43.562;5.036;2023-04-16T10:50:54;2.03;;;1.05;;
69087;SDS011;56190;43.562;5.036;2023-04-16T10:53:25;2.80;;;1.33;;
69087;SDS011;56190;43.562;5.036;2023-04-16T10:58:34;2.10;;;1.00;;
69087;SDS011;56190;43.562;5.036;2023-04-16T11:01:00;2.95;;;1.00;;
69087;SDS011;56190;43.562;5.036;2023-04-16T11:03:29;3.75;;;1.00;;
69087;SDS011;56190;43.562;5.036;2023-04-16T11:06:01;2.00;;;1.10;;
69087;SDS011;56190;43.562;5.036;2023-04-16T11:08:33;2.35;;;1.00;;
69087;SDS011;56190;43.562;5.036;2023-04-16T11:10:58;2.28;;;1.23;;
69087;SDS011;56190;43.562;5.036;2023-04-16T11:13:24;2.83;;;1.42;;
69087;SDS011;56190;43.562;5.036;2023-04-16T11:15:50;9.73;;;1.13;;
69087;SDS011;56190;43.562;5.036;2023-04-16T11:18:18;2.83;;;1.05;;
69087;SDS011;56190;43.562;5.036;2023-04-16T11:20:43;1.50;;;1.10;;
69087;SDS011;56190;43.562;5.036;2023-04-16T11:23:09;1.42;;;0.93;;
69087;SDS011;56190;43.562;5.036;2023-04-16T11:25:35;1.67;;;0.85;;
69087;SDS011;56190;43.562;5.036;2023-04-16T11:28:00;1.25;;;0.80;;
69087;SDS011;56190;43.562;5.036;2023-04-16T11:30:33;1.73;;;1.10;;
69087;SDS011;56190;43.562;5.036;2023-04-16T11:33:00;3.40;;;1.10;;
69087;SDS011;56190;43.562;5.036;2023-04-16T11:35:26;2.67;;;0.95;;
69087;SDS011;56190;43.562;5.036;2023-04-16T11:37:54;2.20;;;1.13;;
69087;SDS011;56190;43.562;5.036;2023-04-16T11:40:19;3.95;;;1.20;;
69087;SDS011;56190;43.562;5.036;2023-04-16T11:42:45;1.67;;;1.00;;
69087;SDS011;56190;43.562;5.036;2023-04-16T11:45:10;3.88;;;0.90;;
69087;SDS011;56190;43.562;5.036;2023-04-16T11:47:45;1.73;;;1.10;;
69087;SDS011;56190;43.562;5.036;2023-04-16T11:52:42;2.97;;;0.90;;
69087;SDS011;56190;43.562;5.036;2023-04-16T11:55:08;2.67;;;1.00;;
69087;SDS011;56190;43.562;5.036;2023-04-16T11:57:33;3.38;;;1.02;;
69087;SDS011;56190;43.562;5.036;2023-04-16T11:59:58;2.60;;;1.00;;
69087;SDS011;56190;43.562;5.036;2023-04-16T12:02:40;1.65;;;0.98;;
69087;SDS011;56190;43.562;5.036;2023-04-16T12:07:49;2.88;;;1.13;;
69087;SDS011;56190;43.562;5.036;2023-04-16T12:10:14;3.15;;;1.00;;
69087;SDS011;56190;43.562;5.036;2023-04-16T12:12:40;2.47;;;1.00;;
69087;SDS011;56190;43.562;5.036;2023-04-16T12:15:05;2.25;;;1.20;;
69087;SDS011;56190;43.562;5.036;2023-04-16T12:17:31;3.53;;;1.08;;
69087;SDS011;56190;43.562;5.036;2023-04-16T12:19:57;1.55;;;1.10;;
69087;SDS011;56190;43.562;5.036;2023-04-16T12:22:30;2.38;;;1.10;;
69087;SDS011;56190;43.562;5.036;2023-04-16T12:27:21;2.40;;;1.17;;
69087;SDS011;56190;43.562;5.036;2023-04-16T12:30:01;2.53;;;0.90;;
69087;SDS011;56190;43.562;5.036;2023-04-16T12:32:26;1.40;;;0.90;;
69087;SDS011;56190;43.562;5.036;2023-04-16T12:34:52;3.70;;;1.00;;
69087;SDS011;56190;43.562;5.036;2023-04-16T12:37:17;4.25;;;1.33;;
69087;SDS011;56190;43.562;5.036;2023-04-16T12:39:42;1.08;;;0.80;;
69087;SDS011;56190;43.562;5.036;2023-04-16T12:42:07;2.95;;;0.93;;
69087;SDS011;56190;43.562;5.036;2023-04-16T12:44:35;1.85;;;0.80;;
69087;SDS011;56190;43.562;5.036;2023-04-16T12:47:00;1.67;;;0.80;;
69087;SDS011;56190;43.562;5.036;2023-04-16T12:49:25;2.67;;;0.90;;
69087;SDS011;56190;43.562;5.036;2023-04-16T12:51:51;2.45;;;0.75;;
69087;SDS011;56190;43.562;5.036;2023-04-16T12:54:16;1.95;;;0.70;;
69087;SDS011;56190;43.562;5.036;2023-04-16T12:56:41;1.55;;;0.73;;
69087;SDS011;56190;43.562;5.036;2023-04-16T12:59:07;1.98;;;0.80;;
69087;SDS011;56190;43.562;5.036;2023-04-16T13:01:34;1.50;;;0.60;;
69087;SDS011;56190;43.562;5.036;2023-04-16T13:04:01;3.88;;;1.00;;
69087;SDS011;56190;43.562;5.036;2023-04-16T13:06:26;1.15;;;0.73;;
69087;SDS011;56190;43.562;5.036;2023-04-16T13:08:51;1.63;;;0.70;;
69087;SDS011;56190;43.562;5.036;2023-04-16T13:11:17;1.45;;;0.77;;
69087;SDS011;56190;43.562;5.036;2023-04-16T13:13:43;0.60;;;0.60;;
69087;SDS011;56190;43.562;5.036;2023-04-16T13:16:08;2.88;;;0.85;;
69087;SDS011;56190;43.562;5.036;2023-04-16T13:18:34;2.30;;;0.90;;
69087;SDS011;56190;43.562;5.036;2023-04-16T13:21:00;5.97;;;1.05;;
69087;SDS011;56190;43.562;5.036;2023-04-16T13:23:26;1.23;;;0.70;;
69087;SDS011;56190;43.562;5.036;2023-04-16T13:25:51;2.55;;;0.70;;
69087;SDS011;56190;43.562;5.036;2023-04-16T13:28:17;1.85;;;0.70;;
69087;SDS011;56190;43.562;5.036;2023-04-16T13:30:42;2.30;;;0.65;;
69087;SDS011;56190;43.562;5.036;2023-04-16T13:33:07;2.90;;;0.90;;
69087;SDS011;56190;43.562;5.036;2023-04-16T13:35:33;2.25;;;0.70;;
69087;SDS011;56190;43.562;5.036;2023-04-16T13:37:58;0.70;;;0.60;;
69087;SDS011;56190;43.562;5.036;2023-04-16T13:40:23;1.70;;;0.60;;
69087;SDS011;56190;43.562;5.036;2023-04-16T13:42:49;4.03;;;0.93;;
69087;SDS011;56190;43.562;5.036;2023-04-16T13:45:14;2.50;;;0.88;;
69087;SDS011;56190;43.562;5.036;2023-04-16T13:47:39;1.65;;;0.80;;
69087;SDS011;56190;43.562;5.036;2023-04-16T13:50:08;1.02;;;0.60;;
69087;SDS011;56190;43.562;5.036;2023-04-16T13:52:33;0.75;;;0.60;;
69087;SDS011;56190;43.562;5.036;2023-04-16T13:54:59;1.63;;;0.70;;
69087;SDS011;56190;43.562;5.036;2023-04-16T13:57:24;1.08;;;0.68;;
69087;SDS011;56190;43.562;5.036;2023-04-16T13:59:50;2.50;;;0.75;;
69087;SDS011;56190;43.562;5.036;2023-04-16T14:02:15;1.00;;;0.70;;
69087;SDS011;56190;43.562;5.036;2023-04-16T14:04:41;2.35;;;0.95;;
69087;SDS011;56190;43.562;5.036;2023-04-16T14:07:06;3.03;;;1.00;;
69087;SDS011;56190;43.562;5.036;2023-04-16T14:09:31;3.55;;;0.95;;
69087;SDS011;56190;43.562;5.036;2023-04-16T14:11:56;2.40;;;0.80;;
69087;SDS011;56190;43.562;5.036;2023-04-16T14:14:22;2.05;;;0.60;;
69087;SDS011;56190;43.562;5.036;2023-04-16T14:16:47;0.70;;;0.60;;
69087;SDS011;56190;43.562;5.036;2023-04-16T14:19:12;2.55;;;0.65;;
69087;SDS011;56190;43.562;5.036;2023-04-16T14:21:37;1.77;;;0.70;;
69087;SDS011;56190;43.562;5.036;2023-04-16T14:24:03;1.52;;;0.80;;
69087;SDS011;56190;43.562;5.036;2023-04-16T14:26:28;0.93;;;0.50;;
69087;SDS011;56190;43.562;5.036;2023-04-16T14:28:54;5.65;;;0.80;;
69087;SDS011;56190;43.562;5.036;2023-04-16T14:31:19;1.08;;;0.60;;
69087;SDS011;56190;43.562;5.036;2023-04-16T14:33:44;3.25;;;0.77;;
69087;SDS011;56190;43.562;5.036;2023-04-16T14:36:10;2.40;;;0.63;;
69087;SDS011;56190;43.562;5.036;2023-04-16T14:38:35;3.00;;;0.80;;
69087;SDS011;56190;43.562;5.036;2023-04-16T14:41:01;3.13;;;0.60;;
69087;SDS011;56190;43.562;5.036;2023-04-16T14:43:26;3.17;;;0.70;;
69087;SDS011;56190;43.562;5.036;2023-04-16T14:45:51;2.97;;;0.88;;
69087;SDS011;56190;43.562;5.036;2023-04-16T14:48:17;3.47;;;0.70;;
69087;SDS011;56190;43.562;5.036;2023-04-16T14:50:42;1.42;;;0.70;;